Time;durP1;ratioP1;P1;durP2;ratioP2;P2;SDS_P1;SDS_P2;PMS_P1;PMS_P2;Temp;Humidity;BMP_temperature;BMP_pressure;BME280_temperature;BME280_humidity;BME280_pressure;Samples;Min_cycle;Max_cycle;Signal;HPM_P1;HPM_P2
2021/03/16 00:00:12;;;;;;;12.93;3.83;;;7.30;88.70;;;;;;5045368;28;20158;-78
2021/03/16 00:02:38;;;;;;;14.37;4.37;;;7.30;90.00;;;;;;5043659;28;20181;-84
2021/03/16 00:05:06;;;;;;;21.83;5.23;;;7.30;90.20;;;;;;5044565;28;20249;-81
2021/03/16 00:07:31;;;;;;;16.03;4.77;;;7.40;90.20;;;;;;5044902;28;20244;-83
2021/03/16 00:09:58;;;;;;;16.07;5.23;;;7.30;90.60;;;;;;5041212;28;20170;-79
2021/03/16 00:12:23;;;;;;;15.10;3.60;;;7.30;91.30;;;;;;5044028;28;20312;-79
2021/03/16 00:14:49;;;;;;;17.90;4.50;;;7.30;91.50;;;;;;5044102;28;20284;-77
2021/03/16 00:17:16;;;;;;;21.57;4.20;;;7.40;91.70;;;;;;5054254;28;20629;-78
2021/03/16 00:19:45;;;;;;;22.83;4.87;;;7.30;91.30;;;;;;5054940;28;20175;-86
2021/03/16 00:22:10;;;;;;;16.33;4.10;;;7.10;92.60;;;;;;5051384;28;20583;-80
2021/03/16 00:24:36;;;;;;;22.13;5.10;;;7.20;93.00;;;;;;5052735;28;20315;-84
2021/03/16 00:27:02;;;;;;;23.07;4.53;;;7.20;92.90;;;;;;5053946;28;20637;-81
2021/03/16 00:29:28;;;;;;;14.53;4.23;;;7.30;93.00;;;;;;5054046;28;20173;-81
2021/03/16 00:31:53;;;;;;;18.13;5.53;;;7.30;92.80;;;;;;5034799;28;20193;-82
2021/03/16 00:34:19;;;;;;;14.87;3.97;;;7.40;92.20;;;;;;5035051;28;20653;-82
2021/03/16 00:36:44;;;;;;;19.90;4.73;;;7.40;91.80;;;;;;5034832;28;20296;-80
2021/03/16 00:39:10;;;;;;;26.17;5.13;;;7.40;92.30;;;;;;5034836;28;20287;-79
2021/03/16 00:41:36;;;;;;;18.73;4.40;;;7.40;92.30;;;;;;5033448;28;20185;-83
2021/03/16 00:44:02;;;;;;;22.47;4.70;;;7.40;92.60;;;;;;5033668;28;20210;-84
2021/03/16 00:46:28;;;;;;;16.57;3.97;;;7.40;91.90;;;;;;5034844;28;20166;-78
2021/03/16 00:48:53;;;;;;;19.27;5.33;;;7.50;92.10;;;;;;5034748;28;20555;-82
2021/03/16 00:51:19;;;;;;;11.77;3.73;;;7.40;92.20;;;;;;5034603;28;20193;-81
2021/03/16 00:53:45;;;;;;;16.23;4.87;;;7.30;92.90;;;;;;5034596;28;20651;-82
2021/03/16 00:56:11;;;;;;;19.73;4.47;;;7.20;93.60;;;;;;5034864;28;20205;-82
2021/03/16 00:58:37;;;;;;;17.70;4.77;;;7.20;94.30;;;;;;5036187;28;20177;-79
2021/03/16 01:01:07;;;;;;;17.57;4.97;;;7.20;94.50;;;;;;5034968;28;20205;-83
2021/03/16 01:03:34;;;;;;;23.17;4.97;;;7.30;94.40;;;;;;5034574;28;20223;-78
2021/03/16 01:06:00;;;;;;;19.03;4.33;;;7.30;94.00;;;;;;5034384;28;20296;-82
2021/03/16 01:08:26;;;;;;;19.37;5.80;;;7.20;94.50;;;;;;5034251;28;20634;-83
2021/03/16 01:10:52;;;;;;;17.27;4.83;;;7.20;94.90;;;;;;5034672;28;20178;-84
2021/03/16 01:13:19;;;;;;;20.47;4.93;;;7.20;94.90;;;;;;5034517;28;20170;-81
2021/03/16 01:15:45;;;;;;;16.90;4.83;;;7.20;94.70;;;;;;5033208;28;20297;-83
2021/03/16 01:18:11;;;;;;;17.43;4.53;;;7.30;94.10;;;;;;5034618;28;20166;-84
2021/03/16 01:20:37;;;;;;;21.00;4.40;;;7.30;93.70;;;;;;5032997;28;20188;-84
2021/03/16 01:23:03;;;;;;;19.50;3.83;;;7.30;92.30;;;;;;5034624;28;20177;-84
2021/03/16 01:25:29;;;;;;;16.43;4.63;;;7.30;92.30;;;;;;5034431;28;20269;-80
2021/03/16 01:27:55;;;;;;;22.67;5.00;;;7.30;92.70;;;;;;5034296;28;20198;-85
2021/03/16 01:30:22;;;;;;;23.07;4.70;;;7.50;92.40;;;;;;5034266;28;20231;-82
2021/03/16 01:32:48;;;;;;;14.90;4.00;;;7.40;92.10;;;;;;5034049;28;20177;-84
2021/03/16 01:35:15;;;;;;;15.97;3.97;;;7.50;92.10;;;;;;5033966;28;20653;-82
2021/03/16 01:37:42;;;;;;;14.70;4.00;;;7.50;91.60;;;;;;5034079;28;20161;-84
2021/03/16 01:40:15;;;;;;;18.00;4.30;;;7.70;91.60;;;;;;5034019;28;20166;-86
2021/03/16 01:42:41;;;;;;;19.40;4.70;;;7.60;91.20;;;;;;5033999;28;20165;-84
2021/03/16 01:45:10;;;;;;;19.33;4.37;;;7.50;91.20;;;;;;5033957;28;20325;-79
2021/03/16 01:47:37;;;;;;;16.37;4.00;;;7.60;91.80;;;;;;5033695;28;20201;-80
2021/03/16 01:50:04;;;;;;;15.83;4.33;;;7.50;92.00;;;;;;5033382;28;20178;-81
2021/03/16 01:52:31;;;;;;;18.03;4.67;;;7.40;92.50;;;;;;5032718;28;20177;-84
2021/03/16 01:54:59;;;;;;;19.97;4.33;;;7.50;92.20;;;;;;5033645;28;20547;-85
2021/03/16 01:57:27;;;;;;;18.90;5.47;;;7.50;91.80;;;;;;5033969;28;20170;-84
2021/03/16 01:59:53;;;;;;;18.57;5.03;;;7.50;91.20;;;;;;5033637;28;20589;-83
2021/03/16 02:02:19;;;;;;;13.57;4.03;;;7.40;92.00;;;;;;5033805;28;20180;-83
2021/03/16 02:04:44;;;;;;;14.47;4.37;;;7.30;92.70;;;;;;5033401;28;20169;-82
2021/03/16 02:07:10;;;;;;;18.70;4.50;;;7.30;93.50;;;;;;5033797;28;20272;-80
2021/03/16 02:10:05;;;;;;;16.33;4.43;;;7.20;93.70;;;;;;5032266;28;20170;-81
2021/03/16 02:12:49;;;;;;;15.90;4.77;;;7.30;94.20;;;;;;5032025;28;20198;-84
2021/03/16 02:15:17;;;;;;;16.67;4.83;;;7.40;93.80;;;;;;5033622;28;20209;-82
2021/03/16 02:17:52;;;;;;;20.53;4.07;;;7.40;92.70;;;;;;5033481;28;20245;-82
2021/03/16 02:20:39;;;;;;;19.27;4.00;;;7.30;93.60;;;;;;5033434;28;20176;-79
2021/03/16 02:23:06;;;;;;;14.63;4.27;;;7.40;93.10;;;;;;5032484;28;20169;-81
2021/03/16 02:26:24;;;;;;;19.10;4.37;;;7.40;93.20;;;;;;5033365;28;20165;-84
2021/03/16 02:29:08;;;;;;;18.80;4.30;;;7.30;93.40;;;;;;5011803;28;20214;-84
2021/03/16 02:31:36;;;;;;;22.80;4.90;;;7.30;93.30;;;;;;5031212;28;20200;-83
2021/03/16 02:34:03;;;;;;;21.77;4.47;;;7.30;93.10;;;;;;5033070;28;20166;-84
2021/03/16 02:36:31;;;;;;;14.93;4.60;;;7.30;93.60;;;;;;5033033;28;20677;-83
2021/03/16 02:38:58;;;;;;;22.03;4.30;;;7.40;93.20;;;;;;5033283;28;20166;-81
2021/03/16 02:41:25;;;;;;;14.93;4.33;;;7.30;93.00;;;;;;5033179;28;20170;-82
2021/03/16 02:43:51;;;;;;;17.60;3.53;;;7.40;92.90;;;;;;5034043;28;20174;-84
2021/03/16 02:46:17;;;;;;;17.63;4.40;;;7.40;92.80;;;;;;5040146;28;20291;-84
2021/03/16 02:48:45;;;;;;;17.73;4.60;;;7.40;92.50;;;;;;5039897;28;20181;-85
2021/03/16 02:51:11;;;;;;;14.43;3.90;;;7.50;92.60;;;;;;5039619;28;20193;-79
2021/03/16 02:53:39;;;;;;;18.43;3.83;;;7.50;91.90;;;;;;5039666;28;20187;-83
2021/03/16 02:56:05;;;;;;;16.33;4.30;;;7.50;91.80;;;;;;5039704;28;20251;-84
2021/03/16 02:58:33;;;;;;;16.30;4.93;;;7.40;92.10;;;;;;5038846;28;20535;-83
2021/03/16 03:01:00;;;;;;;17.87;4.50;;;7.50;91.80;;;;;;5039815;28;20181;-81
2021/03/16 03:03:28;;;;;;;15.70;4.73;;;7.50;92.00;;;;;;5039721;28;20173;-82
2021/03/16 03:05:55;;;;;;;16.67;4.33;;;7.50;91.80;;;;;;5038285;28;20174;-82
2021/03/16 03:08:23;;;;;;;16.90;4.17;;;7.50;91.40;;;;;;5039660;28;20681;-83
2021/03/16 03:10:49;;;;;;;20.83;4.43;;;7.50;91.50;;;;;;5039336;28;20524;-82
2021/03/16 03:13:14;;;;;;;17.07;4.97;;;7.50;91.70;;;;;;5039595;28;20267;-82
2021/03/16 03:15:41;;;;;;;18.60;4.60;;;7.60;91.30;;;;;;5038137;28;20221;-76
2021/03/16 03:18:06;;;;;;;18.03;4.70;;;7.60;90.70;;;;;;5039097;28;20278;-80
2021/03/16 03:20:36;;;;;;;20.30;4.90;;;7.50;90.80;;;;;;5039378;28;20178;-78
2021/03/16 03:23:06;;;;;;;19.40;5.13;;;7.50;91.10;;;;;;5039441;28;20165;-82
2021/03/16 03:25:37;;;;;;;20.03;5.57;;;7.40;91.70;;;;;;5039492;28;20162;-80
2021/03/16 03:28:16;;;;;;;15.40;4.13;;;7.40;92.80;;;;;;5039134;28;20177;-77
2021/03/16 03:30:44;;;;;;;17.73;4.43;;;7.40;92.70;;;;;;5039238;28;20203;-82
2021/03/16 03:33:11;;;;;;;15.60;4.40;;;7.40;93.30;;;;;;5039372;28;20197;-85
2021/03/16 03:35:38;;;;;;;17.23;4.63;;;7.40;93.20;;;;;;5038180;28;20209;-79
2021/03/16 03:38:05;;;;;;;19.13;5.57;;;7.40;93.20;;;;;;5039057;28;20259;-84
2021/03/16 03:40:32;;;;;;;16.93;4.10;;;7.50;92.50;;;;;;5039517;28;20215;-78
2021/03/16 03:43:02;;;;;;;20.70;5.00;;;7.50;92.10;;;;;;5039471;28;20180;-81
2021/03/16 03:45:29;;;;;;;21.67;5.13;;;7.50;92.20;;;;;;5039134;28;20241;-83
2021/03/16 03:48:00;;;;;;;13.93;4.70;;;7.40;92.30;;;;;;5037811;28;20189;-82
2021/03/16 03:50:26;;;;;;;13.77;4.53;;;7.40;92.30;;;;;;5037972;28;20615;-81
2021/03/16 03:52:53;;;;;;;13.13;3.57;;;7.40;91.70;;;;;;5039231;28;20245;-80
2021/03/16 03:55:21;;;;;;;19.83;4.63;;;7.30;91.90;;;;;;5038891;28;20267;-77
2021/03/16 03:57:51;;;;;;;12.13;4.30;;;7.40;92.40;;;;;;5035924;28;20697;-81
2021/03/16 04:00:18;;;;;;;17.77;4.20;;;7.40;91.30;;;;;;5036120;28;20166;-77
2021/03/16 04:02:44;;;;;;;12.60;3.50;;;7.40;90.90;;;;;;5036145;28;20170;-84
2021/03/16 04:05:15;;;;;;;16.33;4.37;;;7.50;90.70;;;;;;5036127;28;20177;-83
2021/03/16 04:07:42;;;;;;;15.17;4.23;;;7.40;90.90;;;;;;5035712;28;20720;-83
2021/03/16 04:10:12;;;;;;;18.10;4.10;;;7.40;90.80;;;;;;5035794;28;20174;-81
2021/03/16 04:12:38;;;;;;;15.57;4.30;;;7.40;90.90;;;;;;5035886;28;20174;-86
2021/03/16 04:15:09;;;;;;;16.13;4.33;;;7.40;90.50;;;;;;5035624;28;20213;-81
2021/03/16 04:17:36;;;;;;;14.63;4.77;;;7.40;90.30;;;;;;5036013;28;20656;-81
2021/03/16 04:20:07;;;;;;;14.80;4.20;;;7.30;91.30;;;;;;5035633;28;20257;-81
2021/03/16 04:22:34;;;;;;;12.67;3.37;;;7.20;91.50;;;;;;5034331;28;20664;-77
2021/03/16 04:25:00;;;;;;;13.13;4.57;;;7.20;91.50;;;;;;5035679;28;20578;-82
2021/03/16 04:27:26;;;;;;;15.57;4.33;;;7.20;91.70;;;;;;5035334;28;20165;-82
2021/03/16 04:29:52;;;;;;;14.40;3.50;;;7.10;91.30;;;;;;5035223;28;20252;-79
2021/03/16 04:32:19;;;;;;;14.33;3.77;;;7.10;91.90;;;;;;5034058;28;20174;-77
2021/03/16 04:34:45;;;;;;;16.80;4.70;;;7.10;92.30;;;;;;5034991;28;20261;-77
2021/03/16 04:37:11;;;;;;;14.63;3.47;;;7.10;92.30;;;;;;5035164;28;20249;-80
2021/03/16 04:39:37;;;;;;;13.63;3.33;;;7.20;91.50;;;;;;5034962;28;20227;-83
2021/03/16 04:42:02;;;;;;;11.30;3.73;;;7.30;90.70;;;;;;5035086;28;20181;-81
2021/03/16 04:44:28;;;;;;;12.97;3.50;;;7.20;90.20;;;;;;5034950;28;20262;-77
2021/03/16 04:46:54;;;;;;;15.83;4.60;;;7.20;90.20;;;;;;5035239;28;20166;-83
2021/03/16 04:49:19;;;;;;;15.53;3.47;;;7.30;90.30;;;;;;5034862;28;20201;-79
2021/03/16 04:51:46;;;;;;;14.27;3.60;;;7.20;90.00;;;;;;5034703;28;20620;-80
2021/03/16 04:54:11;;;;;;;14.33;3.23;;;7.20;89.80;;;;;;5033706;28;20209;-78
2021/03/16 04:56:37;;;;;;;14.83;3.73;;;7.00;90.70;;;;;;5033696;28;20253;-78
2021/03/16 04:59:03;;;;;;;15.20;3.60;;;7.00;91.40;;;;;;5033299;28;20170;-77
2021/03/16 05:01:30;;;;;;;13.27;2.93;;;6.90;91.60;;;;;;5033434;28;20174;-82
2021/03/16 05:03:56;;;;;;;14.70;3.93;;;6.90;91.50;;;;;;5034336;28;20221;-78
2021/03/16 05:06:21;;;;;;;15.70;4.00;;;6.90;92.40;;;;;;5034741;28;20170;-76
2021/03/16 05:08:47;;;;;;;16.63;3.97;;;6.90;92.40;;;;;;5033938;28;20611;-80
2021/03/16 05:11:13;;;;;;;16.90;3.77;;;6.90;91.70;;;;;;5034861;28;20205;-77
2021/03/16 05:13:38;;;;;;;12.17;3.40;;;7.00;91.10;;;;;;5034158;28;20588;-77
2021/03/16 05:16:04;;;;;;;14.93;3.43;;;6.90;91.50;;;;;;5034340;28;20213;-77
2021/03/16 05:18:30;;;;;;;16.00;3.30;;;7.00;91.70;;;;;;5034285;28;20174;-82
2021/03/16 05:20:56;;;;;;;14.57;4.43;;;6.90;92.00;;;;;;5034179;28;20174;-82
2021/03/16 05:23:21;;;;;;;14.60;3.43;;;7.00;92.10;;;;;;5033930;28;20185;-78
2021/03/16 05:25:48;;;;;;;18.67;4.07;;;7.00;91.90;;;;;;5033852;28;20237;-77
2021/03/16 05:28:13;;;;;;;10.87;3.37;;;7.10;91.80;;;;;;5033905;28;20252;-77
2021/03/16 05:30:39;;;;;;;17.97;3.77;;;7.20;91.40;;;;;;5033442;28;20645;-81
2021/03/16 05:33:05;;;;;;;19.20;3.60;;;7.20;90.90;;;;;;5033987;28;20188;-78
2021/03/16 05:35:31;;;;;;;13.37;4.80;;;7.20;90.50;;;;;;5033428;28;20288;-82
2021/03/16 05:37:58;;;;;;;14.83;4.40;;;7.30;90.40;;;;;;5033714;28;20250;-80
2021/03/16 05:40:26;;;;;;;19.97;5.00;;;7.30;90.30;;;;;;5034014;28;20626;-77
2021/03/16 05:42:52;;;;;;;16.73;4.30;;;7.30;90.30;;;;;;5031901;28;20178;-78
2021/03/16 05:45:18;;;;;;;12.13;4.03;;;7.20;90.90;;;;;;5033989;28;20783;-78
2021/03/16 05:47:48;;;;;;;11.60;4.00;;;7.20;91.90;;;;;;5031868;28;20278;-84
2021/03/16 05:50:15;;;;;;;13.93;4.40;;;7.10;92.40;;;;;;5033233;28;20315;-80
2021/03/16 05:52:41;;;;;;;20.53;4.60;;;7.00;92.50;;;;;;5033444;28;20169;-82
2021/03/16 05:55:08;;;;;;;12.03;3.70;;;7.10;92.90;;;;;;5032817;28;20202;-80
2021/03/16 05:57:34;;;;;;;12.27;3.80;;;7.10;93.00;;;;;;5031428;28;20165;-77
2021/03/16 06:00:00;;;;;;;13.57;4.23;;;7.10;93.30;;;;;;5032699;28;20165;-78
2021/03/16 06:02:26;;;;;;;16.70;4.90;;;7.10;93.00;;;;;;5032742;28;20178;-78
2021/03/16 06:04:52;;;;;;;19.37;4.80;;;7.10;92.70;;;;;;5032848;28;20196;-77
2021/03/16 06:07:18;;;;;;;17.77;4.33;;;7.20;92.70;;;;;;5031729;28;20189;-82
2021/03/16 06:09:44;;;;;;;14.53;4.60;;;7.20;92.70;;;;;;5032705;28;20170;-78
2021/03/16 06:12:11;;;;;;;15.57;4.70;;;7.20;92.80;;;;;;5032684;28;20177;-79
2021/03/16 06:14:38;;;;;;;19.90;4.87;;;7.20;92.80;;;;;;5032728;28;20174;-77
2021/03/16 06:17:05;;;;;;;21.57;5.13;;;7.20;93.00;;;;;;5033072;28;20253;-78
2021/03/16 06:19:33;;;;;;;19.57;5.20;;;7.20;92.60;;;;;;5032537;28;20173;-80
2021/03/16 06:22:03;;;;;;;17.07;4.63;;;7.10;93.00;;;;;;5033164;28;20222;-78
2021/03/16 06:24:30;;;;;;;15.23;4.87;;;7.20;93.40;;;;;;5032174;28;20267;-77
2021/03/16 06:26:56;;;;;;;18.77;5.80;;;7.20;93.10;;;;;;5032212;28;20311;-76
2021/03/16 06:29:22;;;;;;;14.20;4.23;;;7.10;93.80;;;;;;5032692;28;20203;-83
2021/03/16 06:31:48;;;;;;;13.23;4.37;;;7.10;94.00;;;;;;5032612;28;20642;-78
2021/03/16 06:34:24;;;;;;;18.60;4.40;;;7.20;94.10;;;;;;5033005;28;20180;-84
2021/03/16 06:36:58;;;;;;;15.40;4.30;;;7.30;93.50;;;;;;5032781;28;20212;-85
2021/03/16 06:39:28;;;;;;;15.63;4.60;;;7.30;93.20;;;;;;5033010;28;20172;-84
2021/03/16 06:41:54;;;;;;;13.70;4.73;;;7.30;93.40;;;;;;5032881;28;20177;-85
2021/03/16 06:44:21;;;;;;;18.00;4.77;;;7.30;93.10;;;;;;5033045;28;20185;-81
2021/03/16 06:46:58;;;;;;;18.60;5.07;;;7.30;92.90;;;;;;5032248;28;20165;-79
2021/03/16 06:49:26;;;;;;;16.80;4.70;;;7.30;93.30;;;;;;5032785;28;20170;-81
2021/03/16 06:51:56;;;;;;;15.87;4.17;;;7.30;93.40;;;;;;5031214;28;20193;-82
2021/03/16 06:54:26;;;;;;;17.97;4.93;;;7.30;93.30;;;;;;5032264;28;20256;-82
2021/03/16 06:57:01;;;;;;;15.50;4.83;;;7.30;93.40;;;;;;5032561;28;20610;-82
2021/03/16 06:59:29;;;;;;;20.83;4.93;;;7.20;94.40;;;;;;5032690;28;20171;-78
2021/03/16 07:01:55;;;;;;;11.87;4.53;;;7.20;94.40;;;;;;5032549;28;20169;-85
2021/03/16 07:04:23;;;;;;;14.57;4.37;;;7.20;94.50;;;;;;5032393;28;20220;-78
2021/03/16 07:06:49;;;;;;;17.63;6.13;;;7.20;94.40;;;;;;5032392;28;20237;-78
2021/03/16 07:09:17;;;;;;;12.63;5.30;;;7.40;94.30;;;;;;5031989;28;20228;-77
2021/03/16 07:11:46;;;;;;;14.07;4.73;;;7.30;94.20;;;;;;5031395;28;20265;-83
2021/03/16 07:14:14;;;;;;;16.10;4.93;;;7.30;94.10;;;;;;5031995;28;20173;-78
2021/03/16 07:16:41;;;;;;;21.17;5.73;;;7.30;94.50;;;;;;5031828;28;20296;-78
2021/03/16 07:19:07;;;;;;;15.30;5.03;;;7.30;94.30;;;;;;5031993;28;20170;-82
2021/03/16 07:21:38;;;;;;;18.57;5.87;;;7.40;94.20;;;;;;5030858;28;20259;-78
2021/03/16 07:24:09;;;;;;;19.17;5.30;;;7.50;94.10;;;;;;5031602;28;20158;-79
2021/03/16 07:26:36;;;;;;;13.30;4.73;;;7.40;93.70;;;;;;5030473;28;20186;-80
2021/03/16 07:29:08;;;;;;;18.43;4.80;;;7.50;93.50;;;;;;5031396;28;20166;-82
2021/03/16 07:31:38;;;;;;;17.20;4.90;;;7.50;93.50;;;;;;5034133;28;20295;-80
2021/03/16 07:34:11;;;;;;;14.07;4.90;;;7.60;93.60;;;;;;5035939;28;20169;-79
2021/03/16 07:36:39;;;;;;;15.87;4.50;;;7.70;93.40;;;;;;5034579;28;20290;-79
2021/03/16 07:39:06;;;;;;;16.30;4.63;;;7.50;93.70;;;;;;5038372;28;20178;-81
2021/03/16 07:41:32;;;;;;;14.87;5.80;;;7.50;94.10;;;;;;5036795;28;20200;-82
2021/03/16 07:44:10;;;;;;;17.70;4.70;;;7.40;94.60;;;;;;5023308;28;20177;-79
2021/03/16 07:46:59;;;;;;;18.00;5.40;;;7.30;95.80;;;;;;5035356;28;20625;-79
2021/03/16 07:49:31;;;;;;;17.57;4.77;;;7.30;96.20;;;;;;5034767;28;20335;-80
2021/03/16 07:51:57;;;;;;;15.57;4.97;;;7.40;95.90;;;;;;5034837;28;20185;-79
2021/03/16 07:54:36;;;;;;;15.70;4.90;;;7.40;96.30;;;;;;5035029;28;20166;-82
2021/03/16 07:57:03;;;;;;;15.10;5.70;;;7.40;96.30;;;;;;5033900;28;20212;-83
2021/03/16 07:59:34;;;;;;;15.33;5.07;;;7.40;96.20;;;;;;5033906;28;20264;-80
2021/03/16 08:02:00;;;;;;;17.30;4.90;;;7.60;96.50;;;;;;5033884;28;20174;-80
2021/03/16 08:04:39;;;;;;;14.93;5.13;;;7.60;96.50;;;;;;5035325;28;20304;-78
2021/03/16 08:07:07;;;;;;;17.33;5.03;;;7.70;95.90;;;;;;5034398;28;20189;-81
2021/03/16 08:10:02;;;;;;;11.93;4.47;;;7.70;95.60;;;;;;5034505;28;20267;-79
2021/03/16 08:12:31;;;;;;;14.70;4.70;;;7.80;94.70;;;;;;5017767;28;20185;-80
2021/03/16 08:15:08;;;;;;;15.37;5.33;;;7.80;93.80;;;;;;5033540;28;20189;-78
2021/03/16 08:17:35;;;;;;;16.70;4.73;;;7.80;94.40;;;;;;5034641;28;20173;-79
2021/03/16 08:20:02;;;;;;;15.87;6.30;;;7.80;94.20;;;;;;5034854;28;20626;-82
2021/03/16 08:22:29;;;;;;;12.57;4.83;;;7.90;94.40;;;;;;5034658;28;20177;-79
2021/03/16 08:25:01;;;;;;;16.10;5.17;;;7.90;94.20;;;;;;5033609;28;20637;-76
2021/03/16 08:27:29;;;;;;;18.03;4.90;;;7.80;95.10;;;;;;5034804;28;20162;-78
2021/03/16 08:29:55;;;;;;;13.53;4.57;;;7.70;95.80;;;;;;5033337;28;20169;-81
2021/03/16 08:32:22;;;;;;;20.63;6.00;;;7.60;96.20;;;;;;5034626;28;20173;-80
2021/03/16 08:34:49;;;;;;;20.40;5.83;;;7.50;96.70;;;;;;5033302;28;20178;-77
2021/03/16 08:37:28;;;;;;;10.00;4.97;;;7.50;97.30;;;;;;5034477;28;20168;-81
2021/03/16 08:39:54;;;;;;;17.87;6.23;;;7.50;97.20;;;;;;5034333;28;20591;-79
2021/03/16 08:42:24;;;;;;;18.70;5.67;;;7.40;97.80;;;;;;5033291;28;20704;-81
2021/03/16 08:44:52;;;;;;;17.87;5.47;;;7.40;98.20;;;;;;5034575;28;20260;-79
2021/03/16 08:47:26;;;;;;;15.67;5.83;;;7.20;98.60;;;;;;5034156;28;20268;-79
2021/03/16 08:49:54;;;;;;;14.30;6.03;;;7.50;99.20;;;;;;5033864;28;20169;-78
2021/03/16 08:52:25;;;;;;;14.77;6.60;;;7.30;98.30;;;;;;5034335;28;20180;-82
2021/03/16 08:54:53;;;;;;;16.17;6.80;;;7.30;98.10;;;;;;5034126;28;20572;-79
2021/03/16 08:57:23;;;;;;;20.70;6.13;;;7.30;98.30;;;;;;5040751;28;20177;-80
2021/03/16 08:59:50;;;;;;;14.63;6.63;;;7.40;98.20;;;;;;5035149;28;20180;-80
2021/03/16 09:02:21;;;;;;;16.00;5.90;;;7.40;98.20;;;;;;5053893;28;20234;-81
2021/03/16 09:04:47;;;;;;;13.17;5.67;;;7.60;98.40;;;;;;5048253;28;20177;-82
2021/03/16 09:07:23;;;;;;;13.37;5.10;;;7.60;97.40;;;;;;5035381;28;20171;-83
2021/03/16 09:09:49;;;;;;;11.93;4.30;;;7.70;95.90;;;;;;5033167;28;20181;-81
2021/03/16 09:12:28;;;;;;;12.73;4.50;;;7.70;94.80;;;;;;5034837;28;20188;-80
2021/03/16 09:15:04;;;;;;;12.93;5.43;;;7.70;94.30;;;;;;5034565;28;20170;-80
2021/03/16 09:17:35;;;;;;;10.33;4.00;;;7.60;95.30;;;;;;5033726;28;20173;-80
2021/03/16 09:20:14;;;;;;;13.60;4.70;;;7.70;95.10;;;;;;5033171;28;20168;-80
2021/03/16 09:22:41;;;;;;;12.20;4.47;;;7.70;95.30;;;;;;5033427;28;20173;-82
2021/03/16 09:25:09;;;;;;;9.60;3.47;;;8.00;94.30;;;;;;5033518;28;20622;-80
2021/03/16 09:27:36;;;;;;;9.67;4.27;;;7.70;91.50;;;;;;5033472;28;20181;-81
2021/03/16 09:30:03;;;;;;;10.03;3.67;;;7.70;91.50;;;;;;5036323;28;20652;-82
2021/03/16 09:32:30;;;;;;;11.37;4.20;;;7.70;90.60;;;;;;5053281;28;20161;-80
2021/03/16 09:34:56;;;;;;;7.70;3.50;;;7.80;92.80;;;;;;5052665;28;20173;-82
2021/03/16 09:37:22;;;;;;;7.03;2.70;;;7.70;90.60;;;;;;5052893;28;20183;-82
2021/03/16 09:39:59;;;;;;;10.93;3.50;;;7.60;82.20;;;;;;5053078;28;20252;-81
2021/03/16 09:42:47;;;;;;;6.00;2.73;;;7.80;87.20;;;;;;5047953;28;20188;-81
2021/03/16 09:45:24;;;;;;;5.40;2.10;;;7.70;77.20;;;;;;5024904;28;20178;-78
2021/03/16 09:47:51;;;;;;;6.63;2.70;;;7.60;71.90;;;;;;5042141;28;20211;-78
2021/03/16 09:50:20;;;;;;;5.83;2.47;;;7.60;77.70;;;;;;5030564;28;20335;-79
2021/03/16 09:53:06;;;;;;;5.27;2.00;;;7.50;77.90;;;;;;5032276;28;20188;-79
2021/03/16 09:55:34;;;;;;;4.93;2.07;;;7.60;82.40;;;;;;5031867;28;20261;-78
2021/03/16 09:58:01;;;;;;;4.83;2.30;;;7.60;80.00;;;;;;5031335;28;20178;-79
2021/03/16 10:00:28;;;;;;;2.63;1.67;;;7.60;81.80;;;;;;5032389;28;20209;-79
2021/03/16 10:03:03;;;;;;;4.70;2.10;;;7.50;75.10;;;;;;5031882;28;20173;-81
2021/03/16 10:05:29;;;;;;;6.70;2.57;;;7.60;75.80;;;;;;5045886;28;20204;-79
2021/03/16 10:07:55;;;;;;;5.77;1.90;;;7.70;78.70;;;;;;5052701;28;20547;-84
2021/03/16 10:10:26;;;;;;;5.57;2.50;;;7.70;77.80;;;;;;5052919;28;20634;-83
2021/03/16 10:13:03;;;;;;;4.50;2.80;;;7.70;75.80;;;;;;5041042;28;20182;-78
2021/03/16 10:15:36;;;;;;;4.00;2.30;;;7.90;77.40;;;;;;5032880;28;20205;-85
2021/03/16 10:18:04;;;;;;;5.13;2.50;;;7.90;69.10;;;;;;5032815;28;20173;-79
2021/03/16 10:20:33;;;;;;;4.77;2.60;;;7.80;75.60;;;;;;5031103;28;20178;-81
2021/03/16 10:23:25;;;;;;;3.33;2.43;;;7.80;68.50;;;;;;5032061;28;20253;-85
2021/03/16 10:25:55;;;;;;;6.03;2.50;;;7.80;67.90;;;;;;5031447;28;20735;-80
2021/03/16 10:28:33;;;;;;;5.60;3.07;;;7.80;72.50;;;;;;5030782;28;20528;-81
2021/03/16 10:31:16;;;;;;;6.53;2.63;;;8.00;74.40;;;;;;5031678;28;20245;-82
2021/03/16 10:33:43;;;;;;;11.97;2.83;;;8.20;73.30;;;;;;5031767;28;20234;-83
2021/03/16 10:36:09;;;;;;;5.43;3.33;;;8.20;71.00;;;;;;5032282;28;20247;-81
2021/03/16 10:38:35;;;;;;;5.03;2.40;;;8.20;74.30;;;;;;5032289;28;20486;-81
2021/03/16 10:41:02;;;;;;;6.80;2.73;;;8.10;73.30;;;;;;5030204;28;20186;-87
2021/03/16 10:43:28;;;;;;;7.90;3.07;;;8.10;75.90;;;;;;5031529;28;20188;-80
2021/03/16 10:45:55;;;;;;;9.73;2.87;;;8.00;81.90;;;;;;5031409;28;20204;-80
2021/03/16 10:48:22;;;;;;;3.77;2.20;;;8.10;81.00;;;;;;5032174;28;20260;-80
2021/03/16 10:50:48;;;;;;;5.23;2.60;;;7.90;76.70;;;;;;5031858;28;20266;-83
2021/03/16 10:53:14;;;;;;;5.63;2.53;;;7.90;80.50;;;;;;5032052;28;20637;-79
2021/03/16 10:55:41;;;;;;;7.27;2.90;;;8.00;82.80;;;;;;5031461;28;20216;-82
2021/03/16 10:58:08;;;;;;;7.13;3.30;;;8.10;85.30;;;;;;5031912;28;20158;-86
2021/03/16 11:00:33;;;;;;;4.20;2.90;;;8.10;83.80;;;;;;5031521;28;20181;-77
2021/03/16 11:02:59;;;;;;;4.87;2.07;;;8.10;81.00;;;;;;5032058;28;20204;-78
2021/03/16 11:05:25;;;;;;;8.30;2.27;;;8.10;75.00;;;;;;5031946;28;20528;-87
2021/03/16 11:07:50;;;;;;;5.07;2.30;;;8.10;78.40;;;;;;5034775;28;20196;-87
2021/03/16 11:10:16;;;;;;;4.53;1.97;;;8.00;75.70;;;;;;5035377;28;20642;-84
2021/03/16 11:12:43;;;;;;;4.00;1.90;;;7.90;78.20;;;;;;5035527;28;20189;-85
2021/03/16 11:15:09;;;;;;;3.43;1.50;;;7.90;81.80;;;;;;5035291;28;20188;-83
2021/03/16 11:17:35;;;;;;;3.33;1.47;;;7.90;83.60;;;;;;5035573;28;20581;-85
2021/03/16 11:20:00;;;;;;;3.87;1.67;;;7.80;77.40;;;;;;5036681;28;20174;-85
2021/03/16 11:22:26;;;;;;;2.60;1.60;;;7.90;76.00;;;;;;5036180;28;20173;-83
2021/03/16 11:24:51;;;;;;;2.23;1.47;;;7.70;76.80;;;;;;5037442;28;20165;-81
2021/03/16 11:27:17;;;;;;;2.80;1.23;;;7.50;83.40;;;;;;5035957;28;20199;-84
2021/03/16 11:29:43;;;;;;;3.90;1.53;;;7.60;84.10;;;;;;5036121;28;20223;-79
2021/03/16 11:32:09;;;;;;;3.83;1.30;;;7.60;83.40;;;;;;5037457;28;20264;-85
2021/03/16 11:34:35;;;;;;;2.40;1.30;;;7.70;82.30;;;;;;5034916;28;20185;-82
2021/03/16 11:37:04;;;;;;;5.50;2.07;;;7.60;84.60;;;;;;5035923;28;20236;-83
2021/03/16 11:39:29;;;;;;;3.87;1.47;;;7.70;85.20;;;;;;5033961;28;20226;-81
2021/03/16 11:41:55;;;;;;;2.97;1.67;;;7.70;90.40;;;;;;5035584;28;20173;-85
2021/03/16 11:44:21;;;;;;;3.93;1.50;;;7.50;91.50;;;;;;5034690;28;20174;-85
2021/03/16 11:46:48;;;;;;;2.33;1.43;;;7.50;90.80;;;;;;5034858;28;20204;-82
2021/03/16 11:49:13;;;;;;;4.37;2.00;;;7.60;90.00;;;;;;5034669;28;20177;-78
2021/03/16 11:51:39;;;;;;;3.67;1.50;;;7.70;90.00;;;;;;5034435;28;20189;-80
2021/03/16 11:54:05;;;;;;;2.37;1.30;;;7.80;89.60;;;;;;5034321;28;20181;-84
2021/03/16 11:56:30;;;;;;;4.97;1.77;;;7.90;83.30;;;;;;5033042;28;20308;-79
2021/03/16 11:58:56;;;;;;;3.87;1.90;;;8.00;85.20;;;;;;5033660;28;20259;-81
2021/03/16 12:01:21;;;;;;;5.90;2.53;;;8.00;85.30;;;;;;5034060;28;20224;-80
2021/03/16 12:03:47;;;;;;;4.33;2.20;;;8.00;81.40;;;;;;5034282;28;20697;-83
2021/03/16 12:06:13;;;;;;;3.03;2.30;;;8.00;81.40;;;;;;5032861;28;20181;-78
2021/03/16 12:08:38;;;;;;;3.07;2.40;;;7.70;79.50;;;;;;5034437;28;20253;-77
2021/03/16 12:11:05;;;;;;;4.90;2.03;;;7.80;87.50;;;;;;5032898;28;20181;-79
2021/03/16 12:13:31;;;;;;;6.07;2.53;;;7.80;88.80;;;;;;5032833;28;20209;-85
2021/03/16 12:15:57;;;;;;;3.83;2.40;;;7.60;92.40;;;;;;5033917;28;20205;-80
2021/03/16 12:18:23;;;;;;;3.33;2.27;;;7.70;91.40;;;;;;5033201;28;20631;-79
2021/03/16 12:20:50;;;;;;;3.27;2.47;;;7.60;84.80;;;;;;5034653;28;20197;-77
2021/03/16 12:23:16;;;;;;;4.40;2.53;;;7.60;86.80;;;;;;5033912;28;20166;-81
2021/03/16 12:25:44;;;;;;;5.47;2.70;;;7.60;90.10;;;;;;5034187;28;20226;-84
2021/03/16 12:28:11;;;;;;;6.87;2.70;;;7.70;90.90;;;;;;5033746;28;20768;-86
2021/03/16 12:30:36;;;;;;;3.27;2.63;;;7.60;88.80;;;;;;5033961;28;20173;-81
2021/03/16 12:33:05;;;;;;;4.60;2.53;;;7.70;90.00;;;;;;5033815;28;20173;-83
2021/03/16 12:35:31;;;;;;;3.90;2.60;;;7.60;86.10;;;;;;5034146;28;20280;-81
2021/03/16 12:37:56;;;;;;;6.10;3.00;;;7.60;87.20;;;;;;5033822;28;20257;-81
2021/03/16 12:40:22;;;;;;;3.87;2.90;;;7.60;87.80;;;;;;5034112;28;20169;-88
2021/03/16 12:42:48;;;;;;;4.67;3.17;;;7.50;87.20;;;;;;5033454;28;20178;-82
2021/03/16 12:45:14;;;;;;;5.67;3.23;;;7.60;90.30;;;;;;5033045;28;20177;-79
2021/03/16 12:47:40;;;;;;;4.57;3.03;;;8.00;91.50;;;;;;5044147;28;20194;-81
2021/03/16 12:50:06;;;;;;;5.10;3.00;;;7.80;88.30;;;;;;5033879;28;20264;-86
2021/03/16 12:52:32;;;;;;;5.43;3.50;;;7.80;87.60;;;;;;5034170;28;20166;-82
2021/03/16 12:54:58;;;;;;;6.70;4.07;;;7.90;88.90;;;;;;5033594;28;20198;-77